sensor_id;sensor_type;location;lat;lon;timestamp;pressure;altitude;pressure_sealevel;temperature;humidity
59608;BME280;45426;44.726;10.390;2023-01-28T00:02:22;100586.41;;;1.70;100.00
59608;BME280;45426;44.726;10.390;2023-01-28T00:04:47;100597.41;;;1.63;100.00
59608;BME280;45426;44.726;10.390;2023-01-28T00:07:13;100603.47;;;0.97;100.00
59608;BME280;45426;44.726;10.390;2023-01-28T00:09:38;100604.78;;;0.84;100.00
59608;BME280;45426;44.726;10.390;2023-01-28T00:12:04;100598.84;;;0.72;100.00
59608;BME280;45426;44.726;10.390;2023-01-28T00:14:30;100598.13;;;0.92;100.00
59608;BME280;45426;44.726;10.390;2023-01-28T00:16:56;100601.09;;;1.21;100.00
59608;BME280;45426;44.726;10.390;2023-01-28T00:19:21;100595.53;;;1.59;100.00
59608;BME280;45426;44.726;10.390;2023-01-28T00:21:47;100587.25;;;1.70;100.00
59608;BME280;45426;44.726;10.390;2023-01-28T00:24:13;100600.59;;;1.24;100.00
59608;BME280;45426;44.726;10.390;2023-01-28T00:26:38;100600.03;;;1.12;100.00
59608;BME280;45426;44.726;10.390;2023-01-28T00:29:03;100603.19;;;0.88;100.00
59608;BME280;45426;44.726;10.390;2023-01-28T00:31:29;100604.31;;;1.23;100.00
59608;BME280;45426;44.726;10.390;2023-01-28T00:33:55;100604.59;;;1.27;100.00
59608;BME280;45426;44.726;10.390;2023-01-28T00:36:23;100596.88;;;1.61;100.00
59608;BME280;45426;44.726;10.390;2023-01-28T00:38:54;100603.28;;;1.96;100.00
59608;BME280;45426;44.726;10.390;2023-01-28T00:41:22;100604.03;;;2.27;100.00
59608;BME280;45426;44.726;10.390;2023-01-28T00:43:48;100606.97;;;2.26;100.00
59608;BME280;45426;44.726;10.390;2023-01-28T00:46:14;100608.03;;;2.35;100.00
59608;BME280;45426;44.726;10.390;2023-01-28T00:48:41;100612.94;;;1.56;100.00
59608;BME280;45426;44.726;10.390;2023-01-28T00:51:08;100605.97;;;1.55;100.00
59608;BME280;45426;44.726;10.390;2023-01-28T00:53:34;100605.13;;;2.16;100.00
59608;BME280;45426;44.726;10.390;2023-01-28T00:56:00;100607.50;;;2.38;100.00
59608;BME280;45426;44.726;10.390;2023-01-28T00:58:26;100610.13;;;2.53;100.00
59608;BME280;45426;44.726;10.390;2023-01-28T01:00:51;100603.81;;;2.08;100.00
59608;BME280;45426;44.726;10.390;2023-01-28T01:03:17;100611.50;;;2.36;100.00
59608;BME280;45426;44.726;10.390;2023-01-28T01:05:43;100607.44;;;2.48;100.00
59608;BME280;45426;44.726;10.390;2023-01-28T01:08:09;100617.63;;;2.57;100.00
59608;BME280;45426;44.726;10.390;2023-01-28T01:10:36;100608.22;;;2.54;100.00
59608;BME280;45426;44.726;10.390;2023-01-28T01:13:01;100615.22;;;2.50;100.00
59608;BME280;45426;44.726;10.390;2023-01-28T01:15:27;100618.00;;;2.04;100.00
59608;BME280;45426;44.726;10.390;2023-01-28T01:17:52;100611.31;;;1.96;100.00
59608;BME280;45426;44.726;10.390;2023-01-28T01:20:23;100612.34;;;2.26;100.00
59608;BME280;45426;44.726;10.390;2023-01-28T01:22:49;100611.56;;;2.15;100.00
59608;BME280;45426;44.726;10.390;2023-01-28T01:25:15;100618.25;;;2.23;100.00
59608;BME280;45426;44.726;10.390;2023-01-28T01:27:41;100623.59;;;2.38;100.00
59608;BME280;45426;44.726;10.390;2023-01-28T01:30:08;100618.25;;;2.18;100.00
59608;BME280;45426;44.726;10.390;2023-01-28T01:32:34;100621.63;;;2.64;100.00
59608;BME280;45426;44.726;10.390;2023-01-28T01:35:01;100628.13;;;2.43;100.00
59608;BME280;45426;44.726;10.390;2023-01-28T01:37:27;100630.56;;;2.24;100.00
59608;BME280;45426;44.726;10.390;2023-01-28T01:39:52;100628.69;;;2.29;100.00
59608;BME280;45426;44.726;10.390;2023-01-28T01:42:18;100624.69;;;2.22;100.00
59608;BME280;45426;44.726;10.390;2023-01-28T01:44:59;100634.25;;;2.59;100.00
59608;BME280;45426;44.726;10.390;2023-01-28T01:47:45;100637.59;;;1.99;100.00
59608;BME280;45426;44.726;10.390;2023-01-28T01:50:28;100641.28;;;2.29;100.00
59608;BME280;45426;44.726;10.390;2023-01-28T01:52:59;100650.13;;;2.24;100.00
59608;BME280;45426;44.726;10.390;2023-01-28T01:55:28;100651.53;;;1.91;100.00
59608;BME280;45426;44.726;10.390;2023-01-28T01:57:57;100651.81;;;1.94;100.00
59608;BME280;45426;44.726;10.390;2023-01-28T02:00:25;100665.97;;;1.64;100.00
59608;BME280;45426;44.726;10.390;2023-01-28T02:02:51;100656.28;;;1.38;100.00
59608;BME280;45426;44.726;10.390;2023-01-28T02:05:19;100654.44;;;2.25;100.00
59608;BME280;45426;44.726;10.390;2023-01-28T02:07:47;100658.22;;;1.99;100.00
59608;BME280;45426;44.726;10.390;2023-01-28T02:10:14;100656.88;;;1.81;100.00
59608;BME280;45426;44.726;10.390;2023-01-28T02:12:47;100653.03;;;2.48;100.00
59608;BME280;45426;44.726;10.390;2023-01-28T02:15:23;100652.56;;;2.21;100.00
59608;BME280;45426;44.726;10.390;2023-01-28T02:17:50;100648.28;;;2.09;100.00
59608;BME280;45426;44.726;10.390;2023-01-28T02:20:33;100655.25;;;2.10;100.00
59608;BME280;45426;44.726;10.390;2023-01-28T02:23:20;100651.53;;;2.11;100.00
59608;BME280;45426;44.726;10.390;2023-01-28T02:28:51;100663.28;;;2.05;100.00
59608;BME280;45426;44.726;10.390;2023-01-28T02:34:59;100653.09;;;2.38;100.00
59608;BME280;45426;44.726;10.390;2023-01-28T02:37:39;100659.97;;;2.65;100.00
59608;BME280;45426;44.726;10.390;2023-01-28T02:40:20;100654.66;;;2.39;100.00
59608;BME280;45426;44.726;10.390;2023-01-28T02:42:47;100660.06;;;2.24;100.00
59608;BME280;45426;44.726;10.390;2023-01-28T02:45:22;100662.75;;;2.29;100.00
59608;BME280;45426;44.726;10.390;2023-01-28T02:47:48;100661.69;;;1.99;100.00
59608;BME280;45426;44.726;10.390;2023-01-28T02:50:26;100662.53;;;1.94;100.00
59608;BME280;45426;44.726;10.390;2023-01-28T02:56:28;100668.03;;;2.65;100.00
59608;BME280;45426;44.726;10.390;2023-01-28T02:59:10;100663.84;;;1.97;100.00
59608;BME280;45426;44.726;10.390;2023-01-28T03:04:30;100663.19;;;2.67;100.00
59608;BME280;45426;44.726;10.390;2023-01-28T03:07:02;100667.50;;;2.58;100.00
59608;BME280;45426;44.726;10.390;2023-01-28T03:09:29;100660.94;;;3.00;100.00
59608;BME280;45426;44.726;10.390;2023-01-28T03:14:44;100672.53;;;2.80;100.00
59608;BME280;45426;44.726;10.390;2023-01-28T03:20:16;100676.84;;;2.81;100.00
59608;BME280;45426;44.726;10.390;2023-01-28T03:23:02;100668.78;;;2.81;100.00
59608;BME280;45426;44.726;10.390;2023-01-28T03:25:51;100670.63;;;2.96;100.00
59608;BME280;45426;44.726;10.390;2023-01-28T03:28:38;100672.72;;;3.04;100.00
59608;BME280;45426;44.726;10.390;2023-01-28T03:31:22;100680.47;;;3.10;100.00
59608;BME280;45426;44.726;10.390;2023-01-28T03:34:08;100683.41;;;3.14;100.00
59608;BME280;45426;44.726;10.390;2023-01-28T03:36:54;100685.63;;;3.02;100.00
59608;BME280;45426;44.726;10.390;2023-01-28T03:39:25;100687.50;;;2.96;100.00
59608;BME280;45426;44.726;10.390;2023-01-28T03:42:05;100685.88;;;3.05;100.00
59608;BME280;45426;44.726;10.390;2023-01-28T03:44:31;100690.47;;;3.00;100.00
59608;BME280;45426;44.726;10.390;2023-01-28T03:47:16;100693.19;;;2.84;100.00
59608;BME280;45426;44.726;10.390;2023-01-28T03:49:44;100695.19;;;2.07;100.00
59608;BME280;45426;44.726;10.390;2023-01-28T03:52:10;100696.78;;;2.13;100.00
59608;BME280;45426;44.726;10.390;2023-01-28T03:54:36;100705.63;;;1.78;100.00
59608;BME280;45426;44.726;10.390;2023-01-28T03:57:02;100700.81;;;1.85;100.00
59608;BME280;45426;44.726;10.390;2023-01-28T03:59:27;100699.19;;;2.09;100.00
59608;BME280;45426;44.726;10.390;2023-01-28T04:01:53;100696.53;;;2.20;100.00
59608;BME280;45426;44.726;10.390;2023-01-28T04:04:19;100695.72;;;2.35;100.00
59608;BME280;45426;44.726;10.390;2023-01-28T04:06:52;100698.09;;;2.51;100.00
59608;BME280;45426;44.726;10.390;2023-01-28T04:09:20;100692.16;;;2.60;100.00
59608;BME280;45426;44.726;10.390;2023-01-28T04:11:46;100697.25;;;2.71;100.00
59608;BME280;45426;44.726;10.390;2023-01-28T04:14:11;100679.31;;;2.51;100.00
59608;BME280;45426;44.726;10.390;2023-01-28T04:16:37;100697.53;;;2.75;100.00
59608;BME280;45426;44.726;10.390;2023-01-28T04:19:02;100690.06;;;2.57;100.00
59608;BME280;45426;44.726;10.390;2023-01-28T04:21:28;100691.06;;;2.76;100.00
59608;BME280;45426;44.726;10.390;2023-01-28T04:23:53;100686.53;;;2.61;100.00
59608;BME280;45426;44.726;10.390;2023-01-28T04:26:19;100692.44;;;2.68;100.00
59608;BME280;45426;44.726;10.390;2023-01-28T04:28:44;100687.13;;;2.48;100.00
59608;BME280;45426;44.726;10.390;2023-01-28T04:31:10;100683.63;;;2.42;100.00
59608;BME280;45426;44.726;10.390;2023-01-28T04:33:35;100679.59;;;2.50;100.00
59608;BME280;45426;44.726;10.390;2023-01-28T04:36:00;100682.53;;;2.53;100.00
59608;BME280;45426;44.726;10.390;2023-01-28T04:38:26;100692.00;;;1.94;100.00
59608;BME280;45426;44.726;10.390;2023-01-28T04:40:52;100698.63;;;1.56;100.00
59608;BME280;45426;44.726;10.390;2023-01-28T04:43:17;100704.78;;;1.51;100.00
59608;BME280;45426;44.726;10.390;2023-01-28T04:45:47;100701.06;;;1.58;100.00
59608;BME280;45426;44.726;10.390;2023-01-28T04:48:14;100699.50;;;2.08;100.00
59608;BME280;45426;44.726;10.390;2023-01-28T04:50:40;100695.75;;;2.19;100.00
59608;BME280;45426;44.726;10.390;2023-01-28T04:53:06;100706.19;;;1.90;100.00
59608;BME280;45426;44.726;10.390;2023-01-28T04:55:31;100701.88;;;1.73;100.00
59608;BME280;45426;44.726;10.390;2023-01-28T04:57:57;100705.63;;;1.98;100.00
59608;BME280;45426;44.726;10.390;2023-01-28T05:00:22;100704.81;;;1.77;100.00
59608;BME280;45426;44.726;10.390;2023-01-28T05:02:47;100700.28;;;1.88;100.00
59608;BME280;45426;44.726;10.390;2023-01-28T05:05:13;100703.75;;;1.88;100.00
59608;BME280;45426;44.726;10.390;2023-01-28T05:07:38;100710.19;;;1.82;100.00
59608;BME280;45426;44.726;10.390;2023-01-28T05:10:04;100718.47;;;1.65;100.00
59608;BME280;45426;44.726;10.390;2023-01-28T05:12:30;100720.56;;;1.53;100.00
59608;BME280;45426;44.726;10.390;2023-01-28T05:14:57;100725.31;;;1.25;100.00
59608;BME280;45426;44.726;10.390;2023-01-28T05:17:25;100725.69;;;1.70;100.00
59608;BME280;45426;44.726;10.390;2023-01-28T05:19:50;100723.78;;;1.55;100.00
59608;BME280;45426;44.726;10.390;2023-01-28T05:22:16;100725.47;;;1.77;100.00
59608;BME280;45426;44.726;10.390;2023-01-28T05:24:41;100734.56;;;1.75;100.00
59608;BME280;45426;44.726;10.390;2023-01-28T05:27:07;100726.47;;;1.55;100.00
59608;BME280;45426;44.726;10.390;2023-01-28T05:29:32;100738.03;;;1.66;100.00
59608;BME280;45426;44.726;10.390;2023-01-28T05:31:57;100743.06;;;1.57;100.00
59608;BME280;45426;44.726;10.390;2023-01-28T05:34:23;100738.84;;;1.71;100.00
59608;BME280;45426;44.726;10.390;2023-01-28T05:36:48;100740.69;;;1.66;100.00
59608;BME280;45426;44.726;10.390;2023-01-28T05:39:14;100751.97;;;1.73;100.00
59608;BME280;45426;44.726;10.390;2023-01-28T05:41:39;100750.78;;;1.38;100.00
59608;BME280;45426;44.726;10.390;2023-01-28T05:44:04;100748.44;;;1.52;100.00
59608;BME280;45426;44.726;10.390;2023-01-28T05:46:30;100754.28;;;1.44;100.00
59608;BME280;45426;44.726;10.390;2023-01-28T05:48:55;100749.41;;;1.25;100.00
59608;BME280;45426;44.726;10.390;2023-01-28T05:51:20;100757.97;;;1.22;100.00
59608;BME280;45426;44.726;10.390;2023-01-28T05:53:46;100757.19;;;1.32;100.00
59608;BME280;45426;44.726;10.390;2023-01-28T05:56:11;100769.97;;;1.20;100.00
59608;BME280;45426;44.726;10.390;2023-01-28T05:58:37;100768.22;;;1.46;100.00
59608;BME280;45426;44.726;10.390;2023-01-28T06:01:02;100767.06;;;1.21;100.00
59608;BME280;45426;44.726;10.390;2023-01-28T06:03:28;100775.13;;;1.36;100.00
59608;BME280;45426;44.726;10.390;2023-01-28T06:05:53;100765.47;;;1.30;100.00
59608;BME280;45426;44.726;10.390;2023-01-28T06:08:19;100773.66;;;1.03;100.00
59608;BME280;45426;44.726;10.390;2023-01-28T06:10:45;100772.97;;;1.28;100.00
59608;BME280;45426;44.726;10.390;2023-01-28T06:13:10;100773.25;;;1.32;100.00
59608;BME280;45426;44.726;10.390;2023-01-28T06:15:36;100780.16;;;1.12;100.00
59608;BME280;45426;44.726;10.390;2023-01-28T06:18:01;100792.13;;;1.00;100.00
59608;BME280;45426;44.726;10.390;2023-01-28T06:20:27;100791.44;;;1.25;100.00
59608;BME280;45426;44.726;10.390;2023-01-28T06:22:52;100781.59;;;1.46;100.00
59608;BME280;45426;44.726;10.390;2023-01-28T06:25:18;100789.09;;;1.39;100.00
59608;BME280;45426;44.726;10.390;2023-01-28T06:27:44;100786.44;;;1.49;100.00
59608;BME280;45426;44.726;10.390;2023-01-28T06:30:10;100790.13;;;1.32;100.00
59608;BME280;45426;44.726;10.390;2023-01-28T06:32:36;100791.88;;;1.69;100.00
59608;BME280;45426;44.726;10.390;2023-01-28T06:35:02;100803.69;;;1.89;100.00
59608;BME280;45426;44.726;10.390;2023-01-28T06:37:27;100804.72;;;1.67;100.00
59608;BME280;45426;44.726;10.390;2023-01-28T06:39:53;100807.94;;;1.69;100.00
59608;BME280;45426;44.726;10.390;2023-01-28T06:42:18;100806.63;;;1.77;100.00
59608;BME280;45426;44.726;10.390;2023-01-28T06:44:43;100812.25;;;1.81;100.00
59608;BME280;45426;44.726;10.390;2023-01-28T06:47:09;100814.16;;;1.96;100.00
59608;BME280;45426;44.726;10.390;2023-01-28T06:49:36;100822.72;;;1.19;100.00
59608;BME280;45426;44.726;10.390;2023-01-28T06:52:01;100833.63;;;0.70;100.00
59608;BME280;45426;44.726;10.390;2023-01-28T06:54:27;100843.19;;;0.61;100.00
59608;BME280;45426;44.726;10.390;2023-01-28T06:56:52;100835.75;;;0.68;100.00
59608;BME280;45426;44.726;10.390;2023-01-28T06:59:17;100831.94;;;0.58;100.00
59608;BME280;45426;44.726;10.390;2023-01-28T07:01:43;100834.53;;;0.86;100.00
59608;BME280;45426;44.726;10.390;2023-01-28T07:04:08;100835.59;;;1.22;100.00
59608;BME280;45426;44.726;10.390;2023-01-28T07:06:34;100836.88;;;1.14;100.00
59608;BME280;45426;44.726;10.390;2023-01-28T07:08:59;100844.31;;;1.50;100.00
59608;BME280;45426;44.726;10.390;2023-01-28T07:11:24;100844.59;;;1.06;100.00
59608;BME280;45426;44.726;10.390;2023-01-28T07:13:50;100850.53;;;1.13;100.00
59608;BME280;45426;44.726;10.390;2023-01-28T07:16:16;100856.66;;;1.13;100.00
59608;BME280;45426;44.726;10.390;2023-01-28T07:18:41;100860.69;;;1.11;100.00
59608;BME280;45426;44.726;10.390;2023-01-28T07:21:07;100854.84;;;1.19;100.00
59608;BME280;45426;44.726;10.390;2023-01-28T07:23:32;100859.78;;;1.43;100.00
59608;BME280;45426;44.726;10.390;2023-01-28T07:26:01;100853.03;;;1.98;100.00
59608;BME280;45426;44.726;10.390;2023-01-28T07:28:27;100859.56;;;2.38;100.00
59608;BME280;45426;44.726;10.390;2023-01-28T07:30:53;100857.06;;;3.29;100.00
59608;BME280;45426;44.726;10.390;2023-01-28T07:33:18;100857.41;;;3.07;100.00
59608;BME280;45426;44.726;10.390;2023-01-28T07:35:45;100858.16;;;3.23;100.00
59608;BME280;45426;44.726;10.390;2023-01-28T07:38:11;100862.53;;;2.62;100.00
59608;BME280;45426;44.726;10.390;2023-01-28T07:40:36;100861.72;;;2.98;100.00
59608;BME280;45426;44.726;10.390;2023-01-28T07:43:02;100862.97;;;3.31;100.00
59608;BME280;45426;44.726;10.390;2023-01-28T07:45:28;100855.69;;;4.46;100.00
59608;BME280;45426;44.726;10.390;2023-01-28T07:47:57;100855.94;;;5.38;100.00
59608;BME280;45426;44.726;10.390;2023-01-28T07:50:24;100857.31;;;4.47;100.00
59608;BME280;45426;44.726;10.390;2023-01-28T07:52:49;100869.88;;;4.57;100.00
59608;BME280;45426;44.726;10.390;2023-01-28T07:55:15;100862.38;;;4.15;100.00
59608;BME280;45426;44.726;10.390;2023-01-28T07:57:54;100873.47;;;5.11;100.00
59608;BME280;45426;44.726;10.390;2023-01-28T08:00:22;100869.31;;;4.95;100.00
59608;BME280;45426;44.726;10.390;2023-01-28T08:02:48;100870.53;;;5.08;100.00
59608;BME280;45426;44.726;10.390;2023-01-28T08:05:18;100871.59;;;4.43;100.00
59608;BME280;45426;44.726;10.390;2023-01-28T08:07:44;100878.19;;;3.66;100.00
59608;BME280;45426;44.726;10.390;2023-01-28T08:10:11;100875.97;;;3.84;100.00
59608;BME280;45426;44.726;10.390;2023-01-28T08:12:37;100885.25;;;3.47;100.00
59608;BME280;45426;44.726;10.390;2023-01-28T08:15:03;100886.34;;;3.36;100.00
59608;BME280;45426;44.726;10.390;2023-01-28T08:17:29;100898.47;;;2.87;100.00
59608;BME280;45426;44.726;10.390;2023-01-28T08:19:55;100894.72;;;2.72;100.00
59608;BME280;45426;44.726;10.390;2023-01-28T08:22:24;100903.56;;;2.78;100.00
59608;BME280;45426;44.726;10.390;2023-01-28T08:24:49;100899.78;;;3.30;100.00
59608;BME280;45426;44.726;10.390;2023-01-28T08:27:15;100898.47;;;3.98;100.00
59608;BME280;45426;44.726;10.390;2023-01-28T08:29:40;100895.50;;;4.50;100.00
59608;BME280;45426;44.726;10.390;2023-01-28T08:32:06;100889.75;;;6.21;100.00
59608;BME280;45426;44.726;10.390;2023-01-28T08:34:31;100881.91;;;8.43;100.00
59608;BME280;45426;44.726;10.390;2023-01-28T08:36:56;100889.41;;;8.46;100.00
59608;BME280;45426;44.726;10.390;2023-01-28T08:39:22;100880.94;;;10.22;100.00
59608;BME280;45426;44.726;10.390;2023-01-28T08:41:47;100895.41;;;9.33;100.00
59608;BME280;45426;44.726;10.390;2023-01-28T08:44:13;100903.34;;;9.70;100.00
59608;BME280;45426;44.726;10.390;2023-01-28T08:46:38;100906.94;;;9.48;100.00
59608;BME280;45426;44.726;10.390;2023-01-28T08:49:04;100905.31;;;9.87;100.00
59608;BME280;45426;44.726;10.390;2023-01-28T08:51:29;100904.63;;;10.39;100.00
59608;BME280;45426;44.726;10.390;2023-01-28T08:53:54;100899.97;;;10.92;100.00
59608;BME280;45426;44.726;10.390;2023-01-28T08:56:20;100904.13;;;8.04;100.00
59608;BME280;45426;44.726;10.390;2023-01-28T08:58:45;100904.22;;;9.48;100.00
59608;BME280;45426;44.726;10.390;2023-01-28T09:01:11;100907.25;;;7.28;100.00
59608;BME280;45426;44.726;10.390;2023-01-28T09:03:36;100897.66;;;7.63;100.00
59608;BME280;45426;44.726;10.390;2023-01-28T09:06:03;100909.88;;;8.25;100.00
59608;BME280;45426;44.726;10.390;2023-01-28T09:08:29;100908.31;;;6.61;100.00
59608;BME280;45426;44.726;10.390;2023-01-28T09:10:58;100917.09;;;6.72;100.00
59608;BME280;45426;44.726;10.390;2023-01-28T09:13:24;100926.78;;;6.35;100.00
59608;BME280;45426;44.726;10.390;2023-01-28T09:15:50;100923.13;;;6.64;100.00
59608;BME280;45426;44.726;10.390;2023-01-28T09:18:16;100928.09;;;5.94;100.00
59608;BME280;45426;44.726;10.390;2023-01-28T09:20:42;100933.13;;;5.23;100.00
59608;BME280;45426;44.726;10.390;2023-01-28T09:23:08;100928.31;;;5.74;100.00
59608;BME280;45426;44.726;10.390;2023-01-28T09:25:34;100936.97;;;5.47;100.00
59608;BME280;45426;44.726;10.390;2023-01-28T09:28:03;100932.97;;;5.92;100.00
59608;BME280;45426;44.726;10.390;2023-01-28T09:30:29;100931.78;;;6.03;100.00
59608;BME280;45426;44.726;10.390;2023-01-28T09:32:55;100928.44;;;6.88;100.00
59608;BME280;45426;44.726;10.390;2023-01-28T09:35:22;100931.69;;;7.04;100.00
59608;BME280;45426;44.726;10.390;2023-01-28T09:37:48;100933.19;;;6.58;100.00
59608;BME280;45426;44.726;10.390;2023-01-28T09:40:17;100937.22;;;6.79;100.00
59608;BME280;45426;44.726;10.390;2023-01-28T09:48:04;100922.66;;;11.04;100.00
59608;BME280;45426;44.726;10.390;2023-01-28T09:50:35;100911.09;;;12.65;100.00
59608;BME280;45426;44.726;10.390;2023-01-28T09:53:10;100918.03;;;14.97;100.00
59608;BME280;45426;44.726;10.390;2023-01-28T09:55:42;100915.06;;;15.65;100.00
59608;BME280;45426;44.726;10.390;2023-01-28T09:58:13;100924.63;;;15.40;100.00
59608;BME280;45426;44.726;10.390;2023-01-28T10:07:10;100924.94;;;17.15;100.00
59608;BME280;45426;44.726;10.390;2023-01-28T10:17:31;100921.19;;;17.50;100.00
59608;BME280;45426;44.726;10.390;2023-01-28T10:20:06;100928.06;;;15.84;100.00
59608;BME280;45426;44.726;10.390;2023-01-28T10:25:18;100935.59;;;16.23;100.00
59608;BME280;45426;44.726;10.390;2023-01-28T10:27:45;100935.81;;;15.66;100.00
59608;BME280;45426;44.726;10.390;2023-01-28T10:30:23;100927.97;;;16.91;100.00
59608;BME280;45426;44.726;10.390;2023-01-28T10:35:41;100938.81;;;15.13;100.00
59608;BME280;45426;44.726;10.390;2023-01-28T10:38:12;100938.97;;;11.60;100.00
59608;BME280;45426;44.726;10.390;2023-01-28T10:40:40;100951.78;;;10.78;100.00
59608;BME280;45426;44.726;10.390;2023-01-28T10:43:06;100950.06;;;9.27;100.00
59608;BME280;45426;44.726;10.390;2023-01-28T10:46:02;100947.38;;;10.07;100.00
59608;BME280;45426;44.726;10.390;2023-01-28T10:48:32;100950.66;;;9.46;100.00
59608;BME280;45426;44.726;10.390;2023-01-28T10:51:01;100943.28;;;9.78;100.00
59608;BME280;45426;44.726;10.390;2023-01-28T10:53:39;100940.00;;;9.59;100.00
59608;BME280;45426;44.726;10.390;2023-01-28T10:56:10;100933.22;;;9.79;100.00
59608;BME280;45426;44.726;10.390;2023-01-28T10:59:20;100935.47;;;10.69;100.00
59608;BME280;45426;44.726;10.390;2023-01-28T11:01:49;100943.44;;;9.82;100.00
59608;BME280;45426;44.726;10.390;2023-01-28T11:07:18;100933.09;;;9.84;100.00
59608;BME280;45426;44.726;10.390;2023-01-28T11:09:49;100934.38;;;9.86;100.00
59608;BME280;45426;44.726;10.390;2023-01-28T11:12:29;100934.88;;;9.97;100.00
59608;BME280;45426;44.726;10.390;2023-01-28T11:15:03;100924.34;;;9.56;100.00
59608;BME280;45426;44.726;10.390;2023-01-28T11:17:32;100921.38;;;10.32;100.00
59608;BME280;45426;44.726;10.390;2023-01-28T11:20:09;100922.59;;;9.20;100.00
59608;BME280;45426;44.726;10.390;2023-01-28T11:22:37;100922.47;;;9.56;100.00
59608;BME280;45426;44.726;10.390;2023-01-28T11:25:14;100916.28;;;9.33;100.00
59608;BME280;45426;44.726;10.390;2023-01-28T11:27:45;100916.38;;;9.19;100.00
59608;BME280;45426;44.726;10.390;2023-01-28T11:30:21;100908.44;;;9.00;100.00
59608;BME280;45426;44.726;10.390;2023-01-28T11:32:55;100906.56;;;9.32;100.00
59608;BME280;45426;44.726;10.390;2023-01-28T11:35:26;100911.91;;;8.69;100.00
59608;BME280;45426;44.726;10.390;2023-01-28T11:37:54;100909.16;;;9.46;100.00
59608;BME280;45426;44.726;10.390;2023-01-28T11:40:20;100916.09;;;9.61;100.00
59608;BME280;45426;44.726;10.390;2023-01-28T11:42:46;100915.59;;;9.59;100.00
59608;BME280;45426;44.726;10.390;2023-01-28T11:45:18;100916.56;;;9.54;100.00
59608;BME280;45426;44.726;10.390;2023-01-28T11:48:10;100907.19;;;9.69;100.00
59608;BME280;45426;44.726;10.390;2023-01-28T11:50:49;100901.56;;;8.94;100.00
59608;BME280;45426;44.726;10.390;2023-01-28T11:56:10;100893.72;;;9.46;100.00
59608;BME280;45426;44.726;10.390;2023-01-28T11:58:51;100897.69;;;9.18;100.00
59608;BME280;45426;44.726;10.390;2023-01-28T12:01:35;100882.81;;;9.86;100.00
59608;BME280;45426;44.726;10.390;2023-01-28T12:04:21;100881.72;;;9.07;100.00
59608;BME280;45426;44.726;10.390;2023-01-28T12:06:55;100885.28;;;9.57;100.00
59608;BME280;45426;44.726;10.390;2023-01-28T12:12:52;100876.00;;;8.86;100.00
59608;BME280;45426;44.726;10.390;2023-01-28T12:20:30;100860.22;;;9.11;100.00
59608;BME280;45426;44.726;10.390;2023-01-28T12:26:05;100852.50;;;9.44;100.00
59608;BME280;45426;44.726;10.390;2023-01-28T12:28:37;100838.72;;;8.92;100.00
59608;BME280;45426;44.726;10.390;2023-01-28T12:37:50;100844.31;;;8.64;100.00
59608;BME280;45426;44.726;10.390;2023-01-28T12:42:54;100841.28;;;8.88;100.00
59608;BME280;45426;44.726;10.390;2023-01-28T12:48:00;100849.59;;;8.10;100.00
59608;BME280;45426;44.726;10.390;2023-01-28T12:50:31;100839.88;;;8.68;100.00
59608;BME280;45426;44.726;10.390;2023-01-28T12:53:26;100838.28;;;9.30;100.00
59608;BME280;45426;44.726;10.390;2023-01-28T12:56:02;100835.78;;;8.12;100.00
59608;BME280;45426;44.726;10.390;2023-01-28T13:01:26;100840.78;;;8.64;100.00
59608;BME280;45426;44.726;10.390;2023-01-28T13:04:03;100837.38;;;8.81;100.00
59608;BME280;45426;44.726;10.390;2023-01-28T13:06:51;100837.03;;;9.36;100.00
59608;BME280;45426;44.726;10.390;2023-01-28T13:09:22;100833.53;;;8.50;100.00
59608;BME280;45426;44.726;10.390;2023-01-28T13:11:51;100831.84;;;9.17;100.00
59608;BME280;45426;44.726;10.390;2023-01-28T13:14:28;100822.75;;;8.82;100.00
59608;BME280;45426;44.726;10.390;2023-01-28T13:16:55;100831.63;;;8.73;100.00
59608;BME280;45426;44.726;10.390;2023-01-28T13:19:23;100837.69;;;7.97;100.00
59608;BME280;45426;44.726;10.390;2023-01-28T13:21:49;100831.56;;;8.06;100.00
59608;BME280;45426;44.726;10.390;2023-01-28T13:26:44;100834.91;;;7.89;100.00
59608;BME280;45426;44.726;10.390;2023-01-28T13:31:40;100833.34;;;8.47;100.00
59608;BME280;45426;44.726;10.390;2023-01-28T13:34:07;100835.97;;;7.65;100.00
59608;BME280;45426;44.726;10.390;2023-01-28T13:36:44;100837.91;;;6.90;100.00
59608;BME280;45426;44.726;10.390;2023-01-28T13:44:35;100836.63;;;7.02;100.00
59608;BME280;45426;44.726;10.390;2023-01-28T13:49:42;100843.44;;;7.82;100.00
59608;BME280;45426;44.726;10.390;2023-01-28T13:54:43;100853.66;;;7.02;100.00
59608;BME280;45426;44.726;10.390;2023-01-28T13:57:40;100845.56;;;7.30;100.00
59608;BME280;45426;44.726;10.390;2023-01-28T14:09:29;100848.69;;;7.37;100.00
59608;BME280;45426;44.726;10.390;2023-01-28T14:12:14;100855.69;;;7.66;100.00
59608;BME280;45426;44.726;10.390;2023-01-28T14:17:50;100851.88;;;7.25;100.00
59608;BME280;45426;44.726;10.390;2023-01-28T14:20:29;100856.19;;;7.40;100.00
59608;BME280;45426;44.726;10.390;2023-01-28T14:23:14;100859.25;;;8.03;100.00
59608;BME280;45426;44.726;10.390;2023-01-28T14:31:29;100873.97;;;7.13;100.00
59608;BME280;45426;44.726;10.390;2023-01-28T14:34:04;100873.91;;;7.60;100.00
59608;BME280;45426;44.726;10.390;2023-01-28T14:36:30;100872.22;;;6.90;100.00
59608;BME280;45426;44.726;10.390;2023-01-28T14:39:00;100870.22;;;7.56;100.00
59608;BME280;45426;44.726;10.390;2023-01-28T14:41:26;100880.28;;;7.23;100.00